Alva, OK

12:32 AM CDT on May 28, 2017 (GMT -0500)
Alva Regional

Weather History for KAVK - November, 2013

Change the Weather History Date:

Friday, November 15, 2013

  Actual Average Record
Temperature  
Mean Temperature 48 °F -  
Max Temperature 66 °F 58 °F 82 °F (1952)
Min Temperature 30 °F 35 °F 15 °F (1959)
Degree Days  
Heating Degree Days 17    
Moisture  
Dew Point 36 °F    
Average Humidity 67    
Maximum Humidity 100    
Minimum Humidity 35    
Precipitation  
Precipitation 0.00 in - - ()
Sea Level Pressure  
Sea Level Pressure 29.79 in    
Wind  
Wind Speed 10 mph (South)    
Max Wind Speed 21 mph    
Max Gust Speed 26 mph    
Visibility 10 miles    
Events      
Averages and records for this station are not official NWS values.
T = Trace of Precipitation, MM = Missing Value Source: NWS Daily Summary

Daily Weather History Graph

Daily Weather History Graph

Search for Another Location

Airport or City:

Trip Planner

Search our weather history database for the weather conditions in past years. The results will help you decide how hot, cold, wet, or windy it might be!

Date:

Astronomy

Nov. 15, 2013 Rise Set
Actual Time 7:13 AM CST 5:25 PM CST
Civil Twilight 6:45 AM CST 5:52 PM CST
Nautical Twilight 6:14 AM CST 6:24 PM CST
Astronomical Twilight 5:43 AM CST 6:54 PM CST
Moon 4:20 PM CST (11/15) 5:13 AM CST (11/15)
Length of Visible Light 11h 07m
Length of Day
10h 12m
Waxing Gibbous, 96% of the Moon is Illuminated
Nov 15
Waxing Gibbous
Nov 17
Full
Nov 25
Last Quarter
Dec 2
New
Dec 9
First Quarter

Hourly Weather History & Observations

Time (CST) Temp. Windchill Dew Point Humidity Pressure Visibility Wind Dir Wind Speed Gust Speed Precip Events Conditions
12:30 AM 37.4 °F 30.8 °F 32.0 °F 81% 29.92 in 10.0 mi South 9.2 mph - N/A   Mostly Cloudy
12:50 AM 35.6 °F 28.6 °F 32.0 °F 87% 29.92 in 10.0 mi South 9.2 mph - N/A   Scattered Clouds
1:10 AM 35.6 °F 29.2 °F 32.0 °F 87% 29.91 in 10.0 mi South 8.1 mph - N/A   Scattered Clouds
1:30 AM 35.6 °F 29.2 °F 32.0 °F 87% 29.90 in 10.0 mi South 8.1 mph - N/A   Scattered Clouds
1:50 AM 35.6 °F 29.9 °F 32.0 °F 87% 29.91 in 10.0 mi SSW 6.9 mph - N/A   Mostly Cloudy
2:10 AM 35.6 °F 30.7 °F 32.0 °F 87% 29.91 in 10.0 mi SW 5.8 mph - N/A   Scattered Clouds
2:30 AM 35.6 °F 31.7 °F 32.0 °F 87% 29.90 in 10.0 mi South 4.6 mph - N/A   Partly Cloudy
2:50 AM 35.6 °F 31.7 °F 32.0 °F 87% 29.91 in 10.0 mi South 4.6 mph - N/A   Partly Cloudy
3:10 AM 35.6 °F 30.7 °F 32.0 °F 87% 29.90 in 10.0 mi South 5.8 mph - N/A   Partly Cloudy
3:30 AM 33.8 °F 27.0 °F 30.2 °F 87% 29.90 in 10.0 mi South 8.1 mph - N/A   Partly Cloudy
3:50 AM 33.8 °F 27.0 °F 32.0 °F 93% 29.88 in 10.0 mi SSE 8.1 mph - N/A   Partly Cloudy
4:10 AM 32.0 °F 25.6 °F 30.2 °F 93% 29.89 in 10.0 mi South 6.9 mph - N/A   Partly Cloudy
4:30 AM 32.0 °F 27.5 °F 28.4 °F 87% 29.89 in 10.0 mi South 4.6 mph - N/A   Partly Cloudy
4:50 AM 32.0 °F 24.8 °F 30.2 °F 93% 29.89 in 10.0 mi South 8.1 mph - N/A   Partly Cloudy
5:10 AM 32.0 °F 25.6 °F 28.4 °F 87% 29.88 in 10.0 mi South 6.9 mph - N/A   Partly Cloudy
5:30 AM 32.0 °F 25.6 °F 30.2 °F 93% 29.88 in 10.0 mi South 6.9 mph - N/A   Clear
5:50 AM 32.0 °F 26.4 °F 30.2 °F 93% 29.88 in 10.0 mi SSW 5.8 mph - N/A   Clear
6:10 AM 32.0 °F 28.7 °F 28.4 °F 87% 29.87 in 10.0 mi South 3.5 mph - N/A   Clear
6:30 AM 30.2 °F - 28.4 °F 93% 29.88 in 10.0 mi Calm Calm - N/A   Clear
6:50 AM 32.0 °F - 30.2 °F 93% 29.88 in 10.0 mi Calm Calm - N/A   Clear
7:10 AM 32.0 °F 26.4 °F 30.2 °F 93% 29.89 in 10.0 mi WSW 5.8 mph - N/A   Clear
7:30 AM 30.2 °F 24.3 °F 28.4 °F 93% 29.89 in 9.0 mi WSW 5.8 mph - N/A   Clear
7:50 AM 32.0 °F 28.7 °F 28.4 °F 87% 29.89 in 9.0 mi SSW 3.5 mph - N/A   Clear
8:10 AM 32.0 °F 25.6 °F 32.0 °F 100% 29.90 in 8.0 mi SW 6.9 mph - N/A   Clear
8:30 AM 33.8 °F 28.6 °F 32.0 °F 93% 29.89 in 9.0 mi WSW 5.8 mph - N/A   Clear
8:50 AM 35.6 °F 30.7 °F 32.0 °F 87% 29.90 in 10.0 mi WSW 5.8 mph - N/A   Clear
9:10 AM 37.4 °F 32.8 °F 32.0 °F 81% 29.89 in 10.0 mi West 5.8 mph - N/A   Clear
9:30 AM 39.2 °F 37.0 °F 32.0 °F 75% 29.89 in 10.0 mi WSW 3.5 mph - N/A   Clear
9:50 AM 41.0 °F 35.8 °F 33.8 °F 76% 29.90 in 10.0 mi WSW 8.1 mph - N/A   Clear
10:10 AM 44.6 °F 40.7 °F 35.6 °F 71% 29.89 in 10.0 mi WSW 6.9 mph - N/A   Clear
10:30 AM 44.6 °F 40.2 °F 35.6 °F 71% 29.89 in 10.0 mi SW 8.1 mph - N/A   Clear
10:50 AM 46.4 °F 41.9 °F 35.6 °F 66% 29.89 in 10.0 mi SW 9.2 mph - N/A   Clear
11:10 AM 50.0 °F - 35.6 °F 58% 29.88 in 10.0 mi SW 10.4 mph - N/A   Clear
11:30 AM 51.8 °F - 35.6 °F 54% 29.87 in 10.0 mi South 10.4 mph - N/A   Clear
11:50 AM 55.4 °F - 35.6 °F 47% 29.85 in 10.0 mi South 11.5 mph - N/A   Clear
12:10 PM 57.2 °F - 35.6 °F 44% 29.83 in 10.0 mi South 10.4 mph - N/A   Clear
12:30 PM 57.2 °F - 37.4 °F 48% 29.82 in 10.0 mi South 11.5 mph - N/A   Clear
12:50 PM 59.0 °F - 37.4 °F 45% 29.78 in 10.0 mi SSE 13.8 mph - N/A   Clear
1:10 PM 60.8 °F - 37.4 °F 42% 29.76 in 10.0 mi SSE 16.1 mph 20.7 mph N/A   Clear
1:30 PM 62.6 °F - 37.4 °F 39% 29.77 in 10.0 mi South 13.8 mph - N/A   Clear
1:50 PM 64.4 °F - 37.4 °F 37% 29.76 in 10.0 mi SSE 12.7 mph - N/A   Clear
2:10 PM 64.4 °F - 37.4 °F 37% 29.75 in 10.0 mi South 16.1 mph - N/A   Clear
2:30 PM 64.4 °F - 37.4 °F 37% 29.74 in 10.0 mi SSE 17.3 mph - N/A   Clear
2:50 PM 64.4 °F - 37.4 °F 37% 29.72 in 10.0 mi SSE 16.1 mph - N/A   Clear
3:10 PM 66.2 °F - 37.4 °F 35% 29.70 in 10.0 mi South 17.3 mph 26.5 mph N/A   Clear
3:30 PM 66.2 °F - 37.4 °F 35% 29.69 in 10.0 mi SSE 15.0 mph 19.6 mph N/A   Clear
3:50 PM 64.4 °F - 37.4 °F 37% 29.67 in 10.0 mi South 17.3 mph - N/A   Clear
4:10 PM 64.4 °F - 39.2 °F 40% 29.67 in 10.0 mi SSE 16.1 mph - N/A   Clear
4:30 PM 62.6 °F - 41.0 °F 45% 29.67 in 10.0 mi South 17.3 mph - N/A   Clear
4:50 PM 62.6 °F - 41.0 °F 45% 29.68 in 10.0 mi South 15.0 mph - N/A   Clear
5:10 PM 60.8 °F - 41.0 °F 48% 29.67 in 10.0 mi South 16.1 mph - N/A   Clear
5:30 PM 59.0 °F - 41.0 °F 51% 29.67 in 10.0 mi South 15.0 mph - N/A   Clear
5:50 PM 57.2 °F - 41.0 °F 55% 29.67 in 10.0 mi SSE 13.8 mph - N/A   Clear
6:10 PM 57.2 °F - 41.0 °F 55% 29.67 in 10.0 mi SSE 13.8 mph - N/A   Clear
6:30 PM 55.4 °F - 41.0 °F 58% 29.67 in 10.0 mi SSE 16.1 mph - N/A   Clear
6:50 PM 55.4 °F - 42.8 °F 63% 29.67 in 10.0 mi SSE 17.3 mph 21.9 mph N/A   Partly Cloudy
7:10 PM 55.4 °F - 42.8 °F 63% 29.67 in 10.0 mi South 13.8 mph - N/A   Scattered Clouds
7:30 PM 57.2 °F - 42.8 °F 59% 29.67 in 10.0 mi South 19.6 mph - N/A   Partly Cloudy
7:50 PM 57.2 °F - 41.0 °F 55% 29.67 in 10.0 mi South 20.7 mph - N/A   Partly Cloudy
8:10 PM 57.2 °F - 41.0 °F 55% 29.67 in 10.0 mi South 17.3 mph - N/A   Clear
8:30 PM 57.2 °F - 41.0 °F 55% 29.67 in 10.0 mi South 15.0 mph - N/A   Clear
8:50 PM 57.2 °F - 41.0 °F 55% 29.66 in 10.0 mi South 16.1 mph - N/A   Partly Cloudy
9:10 PM 57.2 °F - 41.0 °F 55% 29.66 in 10.0 mi South 20.7 mph - N/A   Clear
9:30 PM 57.2 °F - 41.0 °F 55% 29.66 in 10.0 mi South 19.6 mph 25.3 mph N/A   Clear
9:50 PM 57.2 °F - 41.0 °F 55% 29.66 in 10.0 mi South 17.3 mph - N/A   Clear
10:10 PM 55.4 °F - 41.0 °F 58% 29.66 in 10.0 mi South 13.8 mph 20.7 mph N/A   Clear
10:30 PM 55.4 °F - 41.0 °F 58% 29.65 in 10.0 mi South 16.1 mph - N/A   Clear
10:50 PM 55.4 °F - 42.8 °F 63% 29.64 in 10.0 mi South 18.4 mph - N/A   Partly Cloudy
11:10 PM 55.4 °F - 42.8 °F 63% 29.64 in 10.0 mi South 17.3 mph 21.9 mph N/A   Partly Cloudy
11:30 PM 55.4 °F - 42.8 °F 63% 29.63 in 10.0 mi South 18.4 mph - N/A   Clear
11:50 PM 55.4 °F - 42.8 °F 63% 29.63 in 10.0 mi South 15.0 mph - N/A   Clear